Meteo Giornale » Osservazioni meteo Argentina » Mar Del Plata Aerodrome
ore: 19:00 - Osservazioni Meteo Mar Del Plata Aerodrome
Lat. 37° 56' S Lon. 57° 35' W Alt. 18 metri s.l.m.
14 °C
Sereno
Temp. 24 Ore
4 °C
17 °C
Sud/Sud-Ovest
9.3 Km/h
Dew point 8 °C
Umidità 67 %
Visibilità 10 Km
Il sole sorge alle ore 07:12
Il sole tramonta alle ore 18:28
| Data e Ora | Cielo e Fenomeni | T °C | DP °C | Um. % | Pres. hPa | Vis. km | Vento km/h | |
|---|---|---|---|---|---|---|---|---|
| Oggi h: 19:00 | Sereno | 14 | 8 | 67 | 1018 | 10 | S/SO 9.3 | |
| Oggi h: 18:00 | Sereno | 14 | 11 | 82 | 1017 | 10 | S/SE 7.4 | |
| Oggi h: 17:00 | Sereno | 15 | 12 | 82 | 1016 | 10 | E/NE 11.1 | |
| Oggi h: 16:00 | Sereno | 14 | 12 | 87 | 1015 | 10 | NE 13 | |
| Oggi h: 15:00 | Sereno | 16 | 12 | 77 | 1016 | 10 | E/NE 7.4 | |
| Oggi h: 14:00 | Sereno | 15 | 12 | 82 | 1016 | 10 | E/NE 13 | |
| Oggi h: 13:00 | Sereno | 17 | 12 | 72 | 1016 | 10 | N 7.4 | |
| Oggi h: 12:00 | Sereno | 16 | 12 | 77 | 1017 | 10 | N 5.5 | |
| Oggi h: 11:00 | Molto Nuvoloso | 15 | 12 | 82 | 1017 | 10 | NO 16.7 | |
| Oggi h: 10:00 | Molto Nuvoloso | 13 | 13 | 100 | 1017 | 10 | O/NO 13 | |
| Oggi h: 09:30 | Molto Nuvoloso | 12 | 12 | 100 | 1017 | 10 | O/NO 14.8 | |
| Oggi h: 09:18 | Foschia | 10 | 10 | 100 | 1018 | 2 | O/NO 14.8 | |
| Oggi h: 09:00 | Nebbia | 8 | 8 | 100 | 1017 | 0.1 | NO 9.3 | |
| Oggi h: 08:00 | Nebbia | 5 | 5 | 100 | 1016 | 0.1 | NO 9.3 | |
| Oggi h: 07:44 | Nebbia | 5 | 5 | 100 | 1016 | 0.2 | NO 7.4 | |
| Oggi h: 07:32 | Nebbia | 4 | 3 | 93 | 1016 | 0.9 | NO 9.3 | |
| Oggi h: 07:24 | Foschia | 4 | 3 | 93 | 1016 | 5 | NO 7.4 | |
| Oggi h: 07:00 | Sereno | 4 | 3 | 93 | 1015 | 10 | N 5.5 | |
| Oggi h: 06:00 | Sereno | 5 | 4 | 93 | 1015 | 10 | N 5.5 | |
| Oggi h: 05:00 | Sereno | 5 | 5 | 100 | 1015 | 10 | N 5.5 | |
| Oggi h: 04:00 | Sereno | 5 | 4 | 93 | 1015 | 10 | N/NO 7.4 | |
| Oggi h: 03:00 | Sereno | 5 | 4 | 93 | 1015 | 10 | NO 7.4 | |
| Oggi h: 02:00 | Sereno | 10 | 6 | 76 | 1016 | 10 | N 11.1 | |
| Oggi h: 01:00 | Sereno | 8 | 7 | 93 | 1016 | 10 | N/NO 13 | |
| Oggi h: 00:00 | Sereno | 9 | 7 | 87 | 1015 | 10 | N 5.5 | |
| Ieri h: 23:00 | Sereno | 8 | 6 | 87 | 1016 | 8 | N 0 | |
| Ieri h: 22:00 | Sereno | 10 | 7 | 81 | 1016 | 10 | N 0 | |
| Ieri h: 21:00 | Sereno | 12 | 7 | 71 | 1016 | 10 | N 0 | |
| Ieri h: 20:00 | Sereno | 13 | 7 | 66 | 1015 | 10 | N 5.5 | |



